Time;durP1;ratioP1;P1;durP2;ratioP2;P2;SDS_P1;SDS_P2;PMS_P1;PMS_P2;Temp;Humidity;BMP_temperature;BMP_pressure;BME280_temperature;BME280_humidity;BME280_pressure;Samples;Min_cycle;Max_cycle;Signal;HPM_P1;HPM_P2
2022/08/07 00:01:21;;;;;;;4.23;3.93;;;21.30;96.10;;;;;;6224617;28;20225;-59
2022/08/07 00:04:44;;;;;;;4.17;3.63;;;21.40;95.90;;;;;;6224930;28;20244;-59
2022/08/07 00:07:48;;;;;;;3.70;3.40;;;21.30;95.90;;;;;;6227292;28;20227;-59
2022/08/07 00:11:03;;;;;;;3.97;3.37;;;21.30;96.00;;;;;;6227544;28;20231;-59
2022/08/07 00:14:08;;;;;;;3.77;3.57;;;21.30;96.20;;;;;;6227320;28;20233;-59
2022/08/07 00:17:14;;;;;;;5.50;4.37;;;21.20;96.20;;;;;;6229908;28;20225;-59
2022/08/07 00:20:18;;;;;;;4.00;3.80;;;21.20;96.30;;;;;;6229542;28;20225;-59
2022/08/07 00:23:38;;;;;;;3.53;3.33;;;21.20;96.40;;;;;;6226904;28;20237;-59
2022/08/07 00:26:43;;;;;;;4.97;3.40;;;21.20;96.30;;;;;;6227799;28;20681;-59
2022/08/07 00:30:07;;;;;;;3.67;3.37;;;21.00;96.40;;;;;;6227959;28;20221;-59
2022/08/07 00:33:29;;;;;;;4.07;3.77;;;21.00;96.20;;;;;;6227845;28;20248;-59
2022/08/07 00:36:34;;;;;;;4.00;3.70;;;21.00;96.10;;;;;;6227218;28;20865;-59
2022/08/07 00:39:40;;;;;;;4.10;3.67;;;20.90;96.00;;;;;;6226840;28;20239;-59
2022/08/07 00:42:48;;;;;;;3.67;3.37;;;20.90;96.00;;;;;;6227334;28;20395;-60
2022/08/07 00:45:54;;;;;;;4.40;3.67;;;20.90;96.10;;;;;;6227302;28;20362;-59
2022/08/07 00:49:00;;;;;;;4.30;4.00;;;20.90;96.00;;;;;;6227405;28;20712;-59
2022/08/07 00:52:05;;;;;;;4.10;3.63;;;20.90;96.10;;;;;;6227600;28;20256;-59
2022/08/07 00:55:11;;;;;;;4.17;3.80;;;20.90;96.10;;;;;;6228104;28;20212;-59
2022/08/07 00:58:21;;;;;;;4.00;3.67;;;20.80;96.00;;;;;;6228207;28;20233;-59
2022/08/07 01:01:24;;;;;;;3.77;3.47;;;20.90;95.90;;;;;;6227470;28;20248;-59
2022/08/07 01:04:28;;;;;;;5.20;3.60;;;20.90;95.80;;;;;;6228154;28;20224;-59
2022/08/07 01:07:34;;;;;;;4.07;3.67;;;20.90;95.70;;;;;;6227326;28;20279;-59
2022/08/07 01:10:41;;;;;;;3.67;3.30;;;20.80;95.70;;;;;;6227991;28;20312;-59
2022/08/07 01:14:00;;;;;;;3.87;3.57;;;20.90;95.70;;;;;;6226988;28;20232;-59
2022/08/07 01:17:04;;;;;;;4.10;3.80;;;21.00;95.50;;;;;;6226739;28;20237;-59
2022/08/07 01:20:11;;;;;;;3.70;3.40;;;21.00;95.30;;;;;;6227251;28;20392;-59
2022/08/07 01:23:20;;;;;;;3.23;3.03;;;21.10;95.30;;;;;;6184475;28;1251042;-59
2022/08/07 01:26:41;;;;;;;4.50;4.20;;;21.10;94.70;;;;;;6228598;28;20366;-59
2022/08/07 01:29:53;;;;;;;3.90;3.60;;;21.10;94.40;;;;;;6228423;28;20740;-59
2022/08/07 01:32:57;;;;;;;3.93;3.40;;;21.20;94.00;;;;;;6228613;28;20251;-60
2022/08/07 01:36:01;;;;;;;4.20;3.80;;;21.20;94.00;;;;;;6228270;28;20229;-59
2022/08/07 01:39:10;;;;;;;3.30;3.10;;;21.20;94.10;;;;;;6228514;28;20327;-59
2022/08/07 01:42:16;;;;;;;3.80;3.50;;;21.10;94.20;;;;;;6228182;28;20233;-60
2022/08/07 01:45:39;;;;;;;4.03;3.73;;;21.10;94.00;;;;;;6228058;28;20711;-59
2022/08/07 01:48:49;;;;;;;3.57;3.27;;;21.10;93.80;;;;;;6227999;28;20249;-59
2022/08/07 01:51:53;;;;;;;4.03;3.73;;;21.10;93.70;;;;;;6227795;28;20552;-60
2022/08/07 01:55:11;;;;;;;3.70;3.40;;;21.10;93.80;;;;;;6227849;28;20839;-59
2022/08/07 01:58:28;;;;;;;4.03;3.63;;;21.10;93.80;;;;;;6228363;28;20236;-59
2022/08/07 02:01:42;;;;;;;4.57;4.17;;;21.10;94.00;;;;;;6227413;28;20294;-60
2022/08/07 02:05:09;;;;;;;4.70;4.30;;;21.10;94.20;;;;;;6227721;28;20248;-59
2022/08/07 02:08:39;;;;;;;3.33;3.13;;;21.10;94.00;;;;;;6227705;28;20229;-59
2022/08/07 02:11:49;;;;;;;4.13;3.83;;;21.10;93.60;;;;;;6227596;28;20243;-60
2022/08/07 02:15:08;;;;;;;5.47;4.17;;;21.20;93.50;;;;;;6227358;28;20232;-59
2022/08/07 02:18:13;;;;;;;4.40;3.20;;;21.10;93.50;;;;;;6227436;28;20703;-59
2022/08/07 02:21:20;;;;;;;4.30;3.63;;;21.10;93.70;;;;;;6227285;28;20240;-59
2022/08/07 02:24:24;;;;;;;3.80;3.60;;;21.00;94.40;;;;;;6227412;28;20243;-59
2022/08/07 02:27:35;;;;;;;4.70;3.77;;;20.90;94.60;;;;;;6226976;28;20229;-59
2022/08/07 02:30:43;;;;;;;4.20;3.90;;;21.00;94.80;;;;;;6226477;28;20225;-59
2022/08/07 02:33:52;;;;;;;4.43;4.03;;;21.00;94.90;;;;;;6227132;28;20233;-59
2022/08/07 02:37:14;;;;;;;3.80;3.50;;;21.10;95.50;;;;;;6226948;28;20276;-59
2022/08/07 02:40:17;;;;;;;4.77;3.50;;;21.00;96.40;;;;;;6226919;28;20212;-59
2022/08/07 02:43:41;;;;;;;4.37;3.97;;;21.00;96.70;;;;;;6227166;28;20244;-59
2022/08/07 02:46:53;;;;;;;4.50;4.20;;;21.00;97.00;;;;;;6226748;28;20244;-59
2022/08/07 02:49:56;;;;;;;7.67;4.80;;;21.10;97.50;;;;;;6227067;28;20229;-59
2022/08/07 02:53:07;;;;;;;4.07;3.87;;;21.10;97.40;;;;;;6226822;28;20233;-59
2022/08/07 02:56:18;;;;;;;4.20;3.90;;;21.20;97.90;;;;;;6217820;28;20244;-59
2022/08/07 02:59:28;;;;;;;4.50;4.10;;;21.10;97.10;;;;;;6226437;28;20236;-59
2022/08/07 03:02:32;;;;;;;4.60;4.30;;;21.00;97.10;;;;;;6226602;28;20244;-59
2022/08/07 03:05:37;;;;;;;4.70;4.00;;;21.00;97.20;;;;;;6226739;28;20221;-59
2022/08/07 03:08:42;;;;;;;4.40;4.10;;;21.10;97.60;;;;;;6226507;28;20685;-59
2022/08/07 03:11:46;;;;;;;4.57;4.23;;;21.10;97.70;;;;;;6226261;28;20249;-60
2022/08/07 03:15:02;;;;;;;3.97;3.67;;;21.10;97.00;;;;;;6226227;28;20234;-59
2022/08/07 03:18:10;;;;;;;4.10;3.80;;;21.10;96.60;;;;;;6226061;28;20242;-59
2022/08/07 03:21:19;;;;;;;4.57;3.87;;;21.10;96.60;;;;;;6225630;28;20240;-59
2022/08/07 03:24:24;;;;;;;4.17;3.87;;;21.00;96.70;;;;;;6225694;28;20237;-59
2022/08/07 03:27:29;;;;;;;3.97;3.67;;;21.10;96.30;;;;;;6226223;28;20247;-59
2022/08/07 03:31:17;;;;;;;3.60;3.30;;;21.00;96.10;;;;;;6225782;28;20229;-59
2022/08/07 03:34:19;;;;;;;4.83;4.33;;;21.10;96.10;;;;;;6225370;28;20567;-59
2022/08/07 03:37:25;;;;;;;5.00;4.60;;;21.10;95.90;;;;;;6225988;28;20261;-59
2022/08/07 03:40:30;;;;;;;4.53;4.23;;;20.90;97.20;;;;;;6225621;28;20237;-59
2022/08/07 03:43:39;;;;;;;4.70;4.30;;;20.80;97.50;;;;;;6225842;28;20233;-59
2022/08/07 03:47:00;;;;;;;5.27;4.87;;;20.80;97.90;;;;;;6225685;28;20249;-59
2022/08/07 03:50:18;;;;;;;5.00;4.70;;;20.70;98.50;;;;;;6225450;28;20229;-59
2022/08/07 03:53:25;;;;;;;3.90;3.70;;;20.60;98.60;;;;;;6225797;28;20248;-59
2022/08/07 03:56:50;;;;;;;4.53;4.23;;;20.60;98.90;;;;;;6225808;28;20244;-59
2022/08/07 04:00:07;;;;;;;4.90;4.50;;;20.70;98.90;;;;;;6217173;28;20646;-59
2022/08/07 04:03:15;;;;;;;4.80;4.40;;;20.70;98.80;;;;;;6225231;28;20252;-59
2022/08/07 04:06:19;;;;;;;5.07;4.67;;;20.70;97.90;;;;;;6225440;28;20235;-59
2022/08/07 04:09:41;;;;;;;4.90;4.47;;;20.50;97.10;;;;;;6225416;28;20632;-59
2022/08/07 04:12:52;;;;;;;4.47;4.07;;;20.50;97.30;;;;;;6225480;28;20671;-59
2022/08/07 04:15:57;;;;;;;4.77;4.47;;;20.40;97.30;;;;;;6225059;28;20233;-59
2022/08/07 04:19:04;;;;;;;4.37;4.07;;;20.40;97.80;;;;;;6224816;28;20229;-59
2022/08/07 04:22:18;;;;;;;5.00;4.60;;;20.60;98.10;;;;;;6224458;28;20252;-59
2022/08/07 04:25:25;;;;;;;4.90;4.50;;;20.70;97.70;;;;;;6225353;28;20225;-59
2022/08/07 04:28:31;;;;;;;4.50;4.20;;;20.70;97.40;;;;;;6224920;28;20233;-59
2022/08/07 04:31:35;;;;;;;3.90;3.70;;;20.70;97.80;;;;;;6225182;28;20233;-59
2022/08/07 04:35:01;;;;;;;3.87;3.57;;;20.70;97.90;;;;;;6225363;28;20237;-59
2022/08/07 04:38:07;;;;;;;4.70;4.40;;;20.80;97.50;;;;;;6224857;28;20260;-59
2022/08/07 04:41:13;;;;;;;4.37;3.90;;;21.00;97.60;;;;;;6224956;28;20291;-59
2022/08/07 04:44:21;;;;;;;4.53;4.20;;;21.00;97.60;;;;;;6224935;28;20237;-59
2022/08/07 04:47:33;;;;;;;4.90;4.40;;;21.10;97.50;;;;;;6225017;28;20237;-59
2022/08/07 04:51:05;;;;;;;4.00;3.70;;;21.10;97.20;;;;;;6225090;28;20237;-59
2022/08/07 04:54:21;;;;;;;4.67;4.30;;;21.10;97.30;;;;;;6227842;28;20256;-59
2022/08/07 04:57:39;;;;;;;4.90;4.50;;;21.20;97.40;;;;;;6229234;28;20253;-59
2022/08/07 05:01:13;;;;;;;4.60;4.30;;;21.30;97.00;;;;;;6229117;28;20225;-59
2022/08/07 05:04:31;;;;;;;5.03;4.63;;;21.50;96.70;;;;;;6228679;28;20705;-59
2022/08/07 05:07:42;;;;;;;4.63;4.23;;;21.60;96.60;;;;;;6229235;28;20240;-59
2022/08/07 05:10:57;;;;;;;5.13;4.63;;;21.80;96.60;;;;;;6228581;28;20580;-59
2022/08/07 05:14:10;;;;;;;4.73;4.23;;;22.00;96.40;;;;;;6229341;28;20251;-59
2022/08/07 05:17:35;;;;;;;3.90;3.60;;;22.30;95.90;;;;;;6228561;28;20229;-59
2022/08/07 05:21:02;;;;;;;4.33;4.03;;;22.60;95.70;;;;;;6228686;28;20233;-58
2022/08/07 05:24:11;;;;;;;4.77;4.37;;;22.80;95.30;;;;;;6228390;28;20573;-59
2022/08/07 05:27:16;;;;;;;3.90;3.60;;;22.90;94.90;;;;;;6228835;28;20222;-59
2022/08/07 05:30:42;;;;;;;4.57;4.20;;;23.00;94.70;;;;;;6228530;28;20229;-59
2022/08/07 05:33:50;;;;;;;4.43;4.00;;;23.10;93.80;;;;;;6228157;28;20237;-59
2022/08/07 05:37:09;;;;;;;4.47;4.07;;;23.20;94.00;;;;;;6228489;28;20217;-59
2022/08/07 05:40:16;;;;;;;4.43;4.13;;;23.30;93.70;;;;;;6228312;28;20209;-59
2022/08/07 05:43:22;;;;;;;5.37;4.87;;;23.30;93.20;;;;;;6228585;28;20229;-59
2022/08/07 05:46:47;;;;;;;4.90;4.50;;;23.20;93.00;;;;;;6228265;28;20217;-59
2022/08/07 05:49:54;;;;;;;5.20;4.80;;;23.10;93.20;;;;;;6227763;28;20564;-59
2022/08/07 05:52:57;;;;;;;5.27;4.87;;;23.00;93.70;;;;;;6227886;28;20236;-58
2022/08/07 05:56:05;;;;;;;5.47;5.00;;;23.00;94.00;;;;;;6227611;28;20239;-58
2022/08/07 05:59:13;;;;;;;4.63;4.20;;;23.00;94.20;;;;;;6227949;28;20293;-58
2022/08/07 06:02:19;;;;;;;5.33;4.93;;;22.90;94.30;;;;;;6227938;28;20248;-58
2022/08/07 06:05:31;;;;;;;5.03;4.73;;;22.80;94.40;;;;;;6218360;28;20252;-58
2022/08/07 06:08:34;;;;;;;4.80;4.40;;;22.80;94.40;;;;;;6227371;28;20237;-59
2022/08/07 06:11:46;;;;;;;5.30;4.90;;;23.00;94.60;;;;;;6227430;28;20705;-59
2022/08/07 06:14:49;;;;;;;4.30;4.00;;;23.10;94.40;;;;;;6227378;28;20240;-59
2022/08/07 06:17:52;;;;;;;4.53;4.23;;;23.20;94.10;;;;;;6227434;28;20232;-59
2022/08/07 06:20:59;;;;;;;4.40;4.10;;;23.30;93.70;;;;;;6227584;28;20225;-58
2022/08/07 06:24:22;;;;;;;4.60;4.30;;;23.40;93.80;;;;;;6227198;28;20233;-58
2022/08/07 06:27:47;;;;;;;9.43;5.00;;;23.60;93.30;;;;;;6227016;28;20236;-60
2022/08/07 06:31:03;;;;;;;5.73;4.10;;;23.70;92.60;;;;;;6227414;28;20213;-60
2022/08/07 06:34:07;;;;;;;5.70;5.23;;;23.90;92.90;;;;;;6227042;28;20312;-59
2022/08/07 06:37:11;;;;;;;4.80;4.50;;;24.20;92.40;;;;;;6226832;28;20585;-59
2022/08/07 06:40:22;;;;;;;5.40;5.00;;;24.70;91.80;;;;;;6226703;28;20661;-59
2022/08/07 06:43:33;;;;;;;4.47;4.17;;;25.30;90.30;;;;;;6226334;28;20235;-59
2022/08/07 06:46:48;;;;;;;5.07;4.67;;;25.90;89.90;;;;;;6226356;28;20234;-59
2022/08/07 06:50:12;;;;;;;4.50;4.10;;;26.00;87.90;;;;;;6226609;28;20566;-59
2022/08/07 06:53:16;;;;;;;5.20;4.73;;;25.80;88.30;;;;;;6226192;28;20243;-59
2022/08/07 06:56:42;;;;;;;4.50;4.17;;;26.40;87.60;;;;;;6226339;28;20228;-61
2022/08/07 06:59:55;;;;;;;5.30;4.90;;;27.30;84.10;;;;;;6226228;28;20274;-59
2022/08/07 07:03:19;;;;;;;3.87;3.50;;;27.80;81.00;;;;;;6225903;28;20275;-59
2022/08/07 07:06:43;;;;;;;4.30;3.90;;;29.80;75.60;;;;;;6226246;28;20225;-59
2022/08/07 07:10:03;;;;;;;3.30;3.10;;;30.20;69.20;;;;;;6224431;28;20233;-60
2022/08/07 07:13:13;;;;;;;4.80;4.40;;;30.60;68.00;;;;;;6226581;28;20311;-60
2022/08/07 07:16:21;;;;;;;4.82;3.72;;;31.50;64.90;;;;;;6225879;28;20208;-60
2022/08/07 07:19:32;;;;;;;3.20;3.00;;;32.30;61.00;;;;;;6226255;28;20232;-61
2022/08/07 07:22:56;;;;;;;4.43;4.13;;;33.10;59.70;;;;;;6225861;28;20236;-61
2022/08/07 07:26:22;;;;;;;3.33;3.13;;;34.10;55.50;;;;;;6225771;28;20240;-60
2022/08/07 07:29:47;;;;;;;3.72;3.53;;;34.30;55.00;;;;;;6225927;28;20237;-60
2022/08/07 07:33:14;;;;;;;3.72;3.42;;;34.90;53.00;;;;;;6225718;28;20240;-60
2022/08/07 07:36:18;;;;;;;3.45;3.25;;;35.20;51.00;;;;;;6225679;28;20236;-60
2022/08/07 07:39:25;;;;;;;3.28;3.08;;;34.30;51.20;;;;;;6226000;28;20236;-60
2022/08/07 07:42:50;;;;;;;4.07;3.72;;;33.70;52.00;;;;;;6225527;28;20233;-60
2022/08/07 07:45:57;;;;;;;3.90;3.55;;;33.00;52.60;;;;;;6226078;28;20232;-60
2022/08/07 07:49:24;;;;;;;4.32;4.03;;;32.40;53.40;;;;;;6225373;28;20224;-60
2022/08/07 07:52:49;;;;;;;4.47;4.07;;;31.60;55.50;;;;;;6225291;28;20233;-60
2022/08/07 07:55:53;;;;;;;4.60;4.25;;;31.50;55.50;;;;;;6225465;28;20229;-60
2022/08/07 07:59:05;;;;;;;4.55;4.25;;;30.90;56.00;;;;;;6225589;28;20577;-59
2022/08/07 08:02:13;;;;;;;3.67;3.38;;;31.20;56.20;;;;;;6225327;28;20260;-59
2022/08/07 08:05:40;;;;;;;4.20;3.80;;;33.40;53.60;;;;;;6225399;28;20231;-60
2022/08/07 08:08:58;;;;;;;3.58;3.28;;;36.40;48.90;;;;;;6220815;28;20307;-60
2022/08/07 08:12:03;;;;;;;3.20;3.00;;;39.10;43.90;;;;;;6223804;28;20310;-61
2022/08/07 08:15:09;;;;;;;2.80;2.60;;;41.10;40.30;;;;;;6225204;28;20228;-61
2022/08/07 08:18:12;;;;;;;2.72;2.63;;;42.30;37.30;;;;;;6223768;28;20386;-61
2022/08/07 08:28:45;;;;;;;3.00;2.80;;;43.10;32.20;;;;;;6203355;28;20236;-61
2022/08/07 08:31:50;;;;;;;3.13;2.92;;;42.30;33.00;;;;;;6225441;28;20676;-61
2022/08/07 08:35:18;;;;;;;3.22;3.03;;;41.50;33.40;;;;;;6212946;28;20543;-61
2022/08/07 08:38:25;;;;;;;3.22;3.03;;;40.70;33.70;;;;;;6227022;28;20230;-61
2022/08/07 08:41:46;;;;;;;3.10;2.90;;;40.20;34.50;;;;;;6225762;28;20669;-61
2022/08/07 08:45:07;;;;;;;3.38;3.15;;;40.20;33.90;;;;;;6227640;28;20224;-61
2022/08/07 08:48:25;;;;;;;3.80;3.45;;;40.20;33.90;;;;;;6226518;28;20220;-60
2022/08/07 08:51:47;;;;;;;3.15;2.85;;;40.30;34.00;;;;;;6226719;28;20563;-61
2022/08/07 08:55:19;;;;;;;3.13;2.92;;;40.60;33.50;;;;;;6228308;28;20689;-60
2022/08/07 08:58:48;;;;;;;2.85;2.70;;;40.20;33.80;;;;;;6227513;28;20224;-60
2022/08/07 09:02:05;;;;;;;3.42;3.22;;;39.50;34.70;;;;;;6228204;28;20232;-60
2022/08/07 09:05:30;;;;;;;3.40;3.10;;;38.60;35.20;;;;;;6229362;28;20387;-60
2022/08/07 09:08:59;;;;;;;3.30;3.10;;;37.20;37.10;;;;;;6227556;28;20306;-60
2022/08/07 09:12:16;;;;;;;3.58;3.28;;;36.40;38.10;;;;;;6228978;28;20295;-60
2022/08/07 09:15:44;;;;;;;3.42;3.13;;;35.40;39.40;;;;;;6228979;28;20236;-60
2022/08/07 09:19:35;;;;;;;3.95;3.67;;;34.20;41.90;;;;;;6228547;28;20239;-60
2022/08/07 09:23:01;;;;;;;3.70;3.45;;;33.50;43.50;;;;;;6228324;28;20240;-60
2022/08/07 09:26:31;;;;;;;3.67;3.47;;;31.50;46.60;;;;;;6228602;28;20665;-60
2022/08/07 09:29:45;;;;;;;4.43;4.07;;;31.40;46.80;;;;;;6228631;28;20228;-60
2022/08/07 09:33:16;;;;;;;4.18;3.78;;;31.10;48.20;;;;;;6228485;28;20240;-60
2022/08/07 09:36:48;;;;;;;4.65;4.35;;;31.10;48.50;;;;;;6228452;28;20243;-60
2022/08/07 09:40:01;;;;;;;3.90;3.70;;;31.10;48.90;;;;;;6228037;28;20261;-60
2022/08/07 09:43:15;;;;;;;4.28;3.97;;;31.10;48.80;;;;;;6228272;28;20235;-60
2022/08/07 09:46:32;;;;;;;4.68;4.20;;;30.90;48.20;;;;;;6228118;28;20670;-60
2022/08/07 09:50:03;;;;;;;3.50;3.30;;;30.60;48.60;;;;;;6228187;28;20649;-60
2022/08/07 09:53:22;;;;;;;4.00;3.70;;;30.30;49.50;;;;;;6227817;28;20233;-60
2022/08/07 09:56:48;;;;;;;4.38;4.07;;;30.40;49.90;;;;;;6227822;28;20704;-60
2022/08/07 10:00:07;;;;;;;3.60;3.17;;;30.70;49.50;;;;;;6227966;28;20649;-60
2022/08/07 10:03:40;;;;;;;4.28;3.95;;;30.60;49.50;;;;;;6227541;28;20554;-60
2022/08/07 10:07:25;;;;;;;4.15;3.85;;;30.70;49.20;;;;;;6227311;28;20213;-60
2022/08/07 10:10:42;;;;;;;4.45;3.88;;;30.70;49.30;;;;;;6227936;28;20632;-60
2022/08/07 10:14:15;;;;;;;4.10;3.80;;;30.70;48.90;;;;;;6223708;28;20247;-60
2022/08/07 10:17:56;;;;;;;4.00;3.70;;;31.00;48.40;;;;;;6227519;28;20223;-61
2022/08/07 10:21:26;;;;;;;3.70;3.50;;;31.50;47.90;;;;;;6227395;28;20315;-60
2022/08/07 10:25:34;;;;;;;3.20;3.00;;;31.80;47.80;;;;;;6226912;28;20245;-61
2022/08/07 10:28:58;;;;;;;4.18;3.97;;;32.40;47.20;;;;;;6225671;28;20228;-60
2022/08/07 10:32:18;;;;;;;6.47;5.97;;;32.80;46.60;;;;;;6227184;28;20237;-60
2022/08/07 10:36:00;;;;;;;6.28;5.72;;;33.00;46.80;;;;;;6227120;28;20233;-60
2022/08/07 10:39:26;;;;;;;3.78;3.58;;;33.20;45.70;;;;;;6226444;28;20548;-60
2022/08/07 10:42:57;;;;;;;3.63;3.42;;;32.80;45.50;;;;;;6226344;28;20693;-60
2022/08/07 10:46:05;;;;;;;4.18;3.88;;;32.40;46.00;;;;;;6226720;28;20229;-60
2022/08/07 10:49:14;;;;;;;3.50;3.30;;;32.40;46.50;;;;;;6226951;28;20216;-62
2022/08/07 10:52:34;;;;;;;4.30;3.90;;;32.40;46.60;;;;;;6225430;28;20229;-61
2022/08/07 10:55:52;;;;;;;3.35;3.15;;;32.40;46.20;;;;;;6226557;28;20240;-61
2022/08/07 10:59:05;;;;;;;3.70;3.50;;;32.20;46.10;;;;;;6226472;28;20339;-61
2022/08/07 11:02:18;;;;;;;3.75;3.45;;;32.50;45.80;;;;;;6226614;28;20244;-61
2022/08/07 11:05:43;;;;;;;3.55;3.35;;;32.50;45.90;;;;;;6226451;28;20256;-60
2022/08/07 11:08:58;;;;;;;3.58;3.38;;;32.80;45.60;;;;;;6226200;28;20232;-60
2022/08/07 11:12:11;;;;;;;3.50;3.30;;;33.00;44.80;;;;;;6226132;28;20676;-59
2022/08/07 11:15:21;;;;;;;3.92;3.63;;;33.20;44.00;;;;;;6226419;28;20243;-59
2022/08/07 11:18:39;;;;;;;3.67;3.10;;;33.50;43.30;;;;;;6221617;28;20685;-59
2022/08/07 11:21:50;;;;;;;2.83;2.63;;;32.90;43.70;;;;;;6225995;28;20246;-60
2022/08/07 11:25:00;;;;;;;3.63;3.33;;;32.70;43.70;;;;;;6226137;28;20232;-60
2022/08/07 11:28:14;;;;;;;3.63;3.42;;;32.70;43.60;;;;;;6226267;28;20213;-60
2022/08/07 11:31:26;;;;;;;5.00;4.65;;;32.40;43.60;;;;;;6226116;28;20185;-60
2022/08/07 11:34:36;;;;;;;3.83;2.60;;;32.40;44.30;;;;;;6225600;28;20681;-60
2022/08/07 11:37:58;;;;;;;3.58;3.28;;;32.50;43.50;;;;;;6225897;28;20239;-60
2022/08/07 11:41:19;;;;;;;3.28;3.00;;;32.30;43.00;;;;;;6225732;28;20233;-60
2022/08/07 11:44:54;;;;;;;3.15;2.95;;;31.90;43.30;;;;;;6225588;28;20236;-60
2022/08/07 11:48:18;;;;;;;3.00;2.80;;;31.80;42.70;;;;;;6225226;28;20255;-59
2022/08/07 11:51:56;;;;;;;3.55;2.88;;;31.60;42.80;;;;;;6225557;28;20232;-61
2022/08/07 11:55:08;;;;;;;3.13;2.92;;;31.50;43.60;;;;;;6222973;28;20231;-60
2022/08/07 11:58:48;;;;;;;3.65;3.38;;;31.70;42.50;;;;;;6225035;28;20228;-60
2022/08/07 12:02:00;;;;;;;3.53;3.33;;;32.00;42.40;;;;;;6225873;28;20559;-60
2022/08/07 12:05:15;;;;;;;2.70;2.50;;;32.50;41.80;;;;;;6228859;28;20243;-60
2022/08/07 12:08:43;;;;;;;2.80;2.60;;;32.80;40.30;;;;;;6229084;28;20260;-60
2022/08/07 12:11:54;;;;;;;2.78;2.58;;;32.90;39.20;;;;;;6230287;28;20307;-61
2022/08/07 12:15:17;;;;;;;2.67;2.45;;;33.10;38.30;;;;;;6227521;28;20259;-60
2022/08/07 12:18:50;;;;;;;2.67;2.35;;;33.10;38.10;;;;;;6229930;28;20687;-60
2022/08/07 12:22:02;;;;;;;2.80;2.60;;;32.80;39.30;;;;;;6229481;28;20711;-60
2022/08/07 12:29:17;;;;;;;3.28;2.53;;;33.00;40.10;;;;;;6229849;28;20236;-60
2022/08/07 12:32:44;;;;;;;2.42;2.22;;;32.70;39.10;;;;;;6229793;28;20290;-60
2022/08/07 12:35:55;;;;;;;3.10;2.90;;;32.20;41.30;;;;;;6229498;28;20229;-61
2022/08/07 12:39:03;;;;;;;3.60;3.30;;;31.80;42.10;;;;;;6229656;28;20235;-59
2022/08/07 12:42:28;;;;;;;4.30;3.38;;;31.70;42.20;;;;;;6229036;28;20728;-59
2022/08/07 12:45:45;;;;;;;3.08;2.85;;;31.60;42.40;;;;;;6229490;28;20308;-60
2022/08/07 12:49:01;;;;;;;3.08;2.88;;;31.30;42.60;;;;;;6229277;28;20221;-59
2022/08/07 12:52:38;;;;;;;3.65;3.10;;;31.10;42.90;;;;;;6228792;28;20240;-61
2022/08/07 12:55:46;;;;;;;4.00;2.50;;;30.50;44.00;;;;;;6228589;28;20232;-59
2022/08/07 12:59:08;;;;;;;3.17;2.97;;;30.40;45.30;;;;;;6225973;28;20708;-60
2022/08/07 13:02:44;;;;;;;2.93;2.73;;;30.00;45.30;;;;;;6226746;28;20229;-60
2022/08/07 13:06:01;;;;;;;3.40;3.20;;;29.40;46.70;;;;;;6227439;28;20642;-59
2022/08/07 13:09:42;;;;;;;2.97;2.70;;;29.20;47.10;;;;;;6226207;28;20221;-60
2022/08/07 13:13:17;;;;;;;4.93;2.73;;;29.40;47.50;;;;;;6226968;28;20244;-59
2022/08/07 13:16:47;;;;;;;3.13;2.90;;;29.80;46.40;;;;;;6228113;28;20233;-60
2022/08/07 13:20:03;;;;;;;3.60;3.30;;;29.90;46.30;;;;;;6228918;28;20315;-59
2022/08/07 13:23:10;;;;;;;2.93;2.73;;;29.90;47.10;;;;;;6228236;28;20235;-59
2022/08/07 13:26:41;;;;;;;3.80;3.20;;;29.80;47.40;;;;;;6218836;28;20228;-58
2022/08/07 13:29:56;;;;;;;4.00;3.60;;;29.80;48.30;;;;;;6227878;28;20231;-58
2022/08/07 13:33:09;;;;;;;3.43;3.23;;;29.60;48.70;;;;;;6227725;28;20236;-58
2022/08/07 13:36:39;;;;;;;3.20;2.97;;;29.60;48.70;;;;;;6225916;28;20228;-58
2022/08/07 13:39:50;;;;;;;3.80;3.50;;;29.50;49.10;;;;;;6227980;28;20557;-60
2022/08/07 13:43:17;;;;;;;5.13;3.43;;;29.50;48.90;;;;;;6226690;28;20217;-60
2022/08/07 13:46:30;;;;;;;3.33;3.13;;;29.80;47.90;;;;;;6225484;28;20624;-59
2022/08/07 13:49:44;;;;;;;3.53;3.23;;;29.80;46.80;;;;;;6224995;28;20233;-59
2022/08/07 13:53:09;;;;;;;2.50;2.40;;;29.80;46.80;;;;;;6203460;28;20229;-60
2022/08/07 13:56:18;;;;;;;3.00;2.80;;;29.80;46.50;;;;;;6203517;28;20233;-60
2022/08/07 13:59:42;;;;;;;3.17;2.87;;;29.60;47.20;;;;;;6203363;28;20278;-60
2022/08/07 14:02:50;;;;;;;2.90;2.60;;;29.60;46.10;;;;;;6203330;28;20237;-60
2022/08/07 14:05:57;;;;;;;2.90;2.70;;;29.60;46.20;;;;;;6203319;28;20245;-60
2022/08/07 14:09:03;;;;;;;2.97;2.78;;;30.00;46.30;;;;;;6203229;28;20239;-59
2022/08/07 14:12:13;;;;;;;2.88;2.67;;;30.30;45.90;;;;;;6202777;28;20233;-59
2022/08/07 14:15:35;;;;;;;4.40;2.88;;;30.60;45.70;;;;;;6204716;28;20237;-59
2022/08/07 14:18:43;;;;;;;2.83;2.63;;;30.60;43.70;;;;;;6227419;28;20233;-59
2022/08/07 14:21:54;;;;;;;2.60;2.40;;;30.50;44.00;;;;;;6227108;28;20224;-59
2022/08/07 14:25:16;;;;;;;2.70;2.50;;;30.50;45.10;;;;;;6226099;28;20280;-58
2022/08/07 14:28:21;;;;;;;3.23;3.03;;;30.30;44.20;;;;;;6222746;28;20331;-60
2022/08/07 14:31:47;;;;;;;3.00;2.80;;;30.20;44.50;;;;;;6225087;28;20320;-59
2022/08/07 14:35:01;;;;;;;2.90;2.70;;;30.40;44.80;;;;;;6226380;28;20235;-59
2022/08/07 14:38:07;;;;;;;4.25;3.00;;;30.70;44.00;;;;;;6226868;28;20295;-59
2022/08/07 14:41:32;;;;;;;2.55;2.35;;;30.80;44.70;;;;;;6226892;28;20237;-61
2022/08/07 14:44:59;;;;;;;2.53;2.33;;;30.90;42.90;;;;;;6226505;28;20228;-60
2022/08/07 14:48:27;;;;;;;3.05;2.85;;;31.00;43.10;;;;;;6226621;28;20228;-60
2022/08/07 14:51:36;;;;;;;2.95;2.33;;;30.90;41.30;;;;;;6226390;28;20676;-60
2022/08/07 14:55:02;;;;;;;2.78;2.58;;;30.70;41.10;;;;;;6226217;28;20229;-60
2022/08/07 14:58:07;;;;;;;2.72;2.47;;;30.40;41.50;;;;;;6226739;28;20224;-60
2022/08/07 15:01:30;;;;;;;2.65;2.45;;;30.40;43.60;;;;;;6225914;28;21051;-60
2022/08/07 15:04:56;;;;;;;2.70;2.50;;;30.40;42.90;;;;;;6225729;28;20550;-60
2022/08/07 15:08:07;;;;;;;2.80;2.60;;;30.30;43.30;;;;;;6225843;28;20561;-60
2022/08/07 15:11:18;;;;;;;2.63;2.42;;;30.40;43.30;;;;;;6226239;28;20228;-60
2022/08/07 15:14:49;;;;;;;2.60;2.40;;;30.20;42.40;;;;;;6225964;28;20236;-60
2022/08/07 15:18:04;;;;;;;2.20;2.08;;;30.20;43.60;;;;;;6225914;28;20752;-60
2022/08/07 15:21:21;;;;;;;2.60;2.40;;;30.20;43.10;;;;;;6226125;28;20264;-60
2022/08/07 15:24:49;;;;;;;2.77;2.57;;;30.20;42.90;;;;;;6225525;28;20232;-60
2022/08/07 15:28:16;;;;;;;3.20;3.00;;;30.00;42.40;;;;;;6225475;28;20216;-60
2022/08/07 15:31:40;;;;;;;3.00;2.80;;;29.80;42.70;;;;;;6221266;28;20237;-60
2022/08/07 15:35:05;;;;;;;3.63;3.33;;;29.60;42.60;;;;;;6225532;28;20228;-59
2022/08/07 15:38:11;;;;;;;5.33;4.00;;;29.60;42.70;;;;;;6225358;28;20544;-59
2022/08/07 15:41:39;;;;;;;3.80;3.50;;;29.50;42.70;;;;;;6225482;28;20228;-62
2022/08/07 15:45:04;;;;;;;4.00;2.20;;;29.50;42.70;;;;;;6225498;28;20228;-61
2022/08/07 15:48:21;;;;;;;6.00;5.50;;;29.40;41.00;;;;;;6225311;28;20544;-61
2022/08/07 15:51:29;;;;;;;5.50;5.00;;;29.30;41.80;;;;;;6225433;28;20520;-60
2022/08/07 15:54:55;;;;;;;3.50;3.30;;;29.20;41.80;;;;;;6224769;28;20231;-61
2022/08/07 15:58:06;;;;;;;4.07;3.77;;;29.10;42.00;;;;;;6223588;28;20221;-60
2022/08/07 16:01:25;;;;;;;7.27;6.27;;;29.10;42.40;;;;;;6223206;28;20208;-60
2022/08/07 16:04:42;;;;;;;3.30;3.00;;;29.00;43.10;;;;;;6220560;28;20236;-60
2022/08/07 16:07:54;;;;;;;5.17;4.67;;;29.10;42.60;;;;;;6225626;28;20308;-60
2022/08/07 16:11:34;;;;;;;4.90;3.20;;;29.00;43.10;;;;;;6225222;28;20223;-61
2022/08/07 16:14:59;;;;;;;2.67;2.47;;;29.00;44.00;;;;;;6225280;28;20228;-61
2022/08/07 16:18:09;;;;;;;3.63;2.23;;;28.90;43.50;;;;;;6224925;28;20547;-59
2022/08/07 16:21:18;;;;;;;3.30;3.00;;;28.80;43.20;;;;;;6223194;28;20241;-60
2022/08/07 16:24:49;;;;;;;3.97;3.57;;;28.80;43.50;;;;;;6224706;28;20604;-60
2022/08/07 16:28:11;;;;;;;3.60;3.30;;;28.70;45.20;;;;;;6225038;28;20311;-60
2022/08/07 16:31:42;;;;;;;3.10;2.90;;;28.60;45.50;;;;;;6224848;28;20241;-59
2022/08/07 16:35:12;;;;;;;2.73;2.53;;;28.50;45.90;;;;;;6224079;28;20221;-60
2022/08/07 16:38:45;;;;;;;3.03;2.73;;;28.40;46.40;;;;;;6222491;28;20560;-59
2022/08/07 16:42:38;;;;;;;3.20;2.87;;;28.20;46.40;;;;;;6224331;28;20216;-59
2022/08/07 16:46:20;;;;;;;4.07;3.10;;;28.00;47.70;;;;;;6224840;28;20338;-59
2022/08/07 16:50:11;;;;;;;3.03;2.80;;;27.80;49.10;;;;;;6227234;28;20233;-59
2022/08/07 16:54:02;;;;;;;2.80;2.60;;;27.70;49.60;;;;;;6228378;28;20317;-59
2022/08/07 16:57:29;;;;;;;4.43;3.30;;;27.60;50.40;;;;;;6219518;28;20290;-60
2022/08/07 17:01:28;;;;;;;3.43;2.90;;;27.40;50.50;;;;;;6229167;28;20240;-61
2022/08/07 17:04:40;;;;;;;3.27;2.60;;;27.40;51.20;;;;;;6228964;28;20251;-59
2022/08/07 17:08:01;;;;;;;2.97;2.70;;;27.30;52.30;;;;;;6226821;28;20229;-59
2022/08/07 17:11:12;;;;;;;2.97;2.77;;;27.30;52.30;;;;;;6228933;28;20575;-59
2022/08/07 17:14:23;;;;;;;2.83;2.60;;;27.10;52.90;;;;;;6228991;28;20286;-59
2022/08/07 17:17:38;;;;;;;3.27;2.97;;;27.00;53.00;;;;;;6228627;28;20241;-59